sensor_id;sensor_type;location;lat;lon;timestamp;P1;durP1;ratioP1;P2;durP2;ratioP2
18881;SDS011;9573;50.948;11.600;2022-10-26T04:22:36;19.80;;;6.73;;
18881;SDS011;9573;50.948;11.600;2022-10-26T04:25:03;18.70;;;6.63;;
18881;SDS011;9573;50.948;11.600;2022-10-26T04:27:32;23.43;;;7.47;;
18881;SDS011;9573;50.948;11.600;2022-10-26T04:29:59;23.80;;;7.50;;
18881;SDS011;9573;50.948;11.600;2022-10-26T04:32:26;21.67;;;7.17;;
18881;SDS011;9573;50.948;11.600;2022-10-26T04:34:53;24.00;;;7.77;;
18881;SDS011;9573;50.948;11.600;2022-10-26T04:37:22;24.77;;;6.87;;
18881;SDS011;9573;50.948;11.600;2022-10-26T04:39:50;18.57;;;6.80;;
18881;SDS011;9573;50.948;11.600;2022-10-26T04:42:17;19.40;;;7.10;;
18881;SDS011;9573;50.948;11.600;2022-10-26T04:44:44;21.90;;;6.80;;
18881;SDS011;9573;50.948;11.600;2022-10-26T04:47:11;21.47;;;6.90;;
18881;SDS011;9573;50.948;11.600;2022-10-26T04:49:38;27.77;;;8.47;;
18881;SDS011;9573;50.948;11.600;2022-10-26T04:52:05;26.40;;;8.67;;
18881;SDS011;9573;50.948;11.600;2022-10-26T04:54:32;29.87;;;8.30;;
18881;SDS011;9573;50.948;11.600;2022-10-26T04:57:01;27.23;;;8.50;;
18881;SDS011;9573;50.948;11.600;2022-10-26T04:59:28;32.17;;;8.03;;
18881;SDS011;9573;50.948;11.600;2022-10-26T05:01:55;28.23;;;8.70;;
18881;SDS011;9573;50.948;11.600;2022-10-26T05:04:22;30.63;;;8.23;;
18881;SDS011;9573;50.948;11.600;2022-10-26T05:06:50;23.43;;;7.33;;
18881;SDS011;9573;50.948;11.600;2022-10-26T05:09:18;28.13;;;7.67;;
18881;SDS011;9573;50.948;11.600;2022-10-26T05:11:45;24.67;;;7.33;;
18881;SDS011;9573;50.948;11.600;2022-10-26T05:14:14;26.13;;;8.00;;
18881;SDS011;9573;50.948;11.600;2022-10-26T13:02:49;10.83;;;3.67;;
18881;SDS011;9573;50.948;11.600;2022-10-26T13:05:49;9.10;;;3.30;;
18881;SDS011;9573;50.948;11.600;2022-10-26T13:08:38;18.93;;;5.13;;
18881;SDS011;9573;50.948;11.600;2022-10-26T13:11:11;9.43;;;3.23;;
18881;SDS011;9573;50.948;11.600;2022-10-26T13:13:43;9.63;;;3.40;;
18881;SDS011;9573;50.948;11.600;2022-10-26T13:16:18;10.07;;;3.40;;
18881;SDS011;9573;50.948;11.600;2022-10-26T13:18:47;13.33;;;3.97;;
18881;SDS011;9573;50.948;11.600;2022-10-26T13:21:15;7.87;;;3.33;;
18881;SDS011;9573;50.948;11.600;2022-10-26T13:23:44;9.30;;;3.20;;
18881;SDS011;9573;50.948;11.600;2022-10-26T13:26:13;10.73;;;3.70;;
18881;SDS011;9573;50.948;11.600;2022-10-26T13:28:48;18.37;;;7.43;;
18881;SDS011;9573;50.948;11.600;2022-10-26T13:34:22;10.83;;;3.77;;
18881;SDS011;9573;50.948;11.600;2022-10-26T13:36:56;19.33;;;6.73;;
18881;SDS011;9573;50.948;11.600;2022-10-26T13:39:43;23.13;;;8.37;;
18881;SDS011;9573;50.948;11.600;2022-10-26T13:42:21;11.17;;;3.73;;
18881;SDS011;9573;50.948;11.600;2022-10-26T13:44:52;22.77;;;3.53;;
18881;SDS011;9573;50.948;11.600;2022-10-26T13:47:25;22.37;;;9.50;;
18881;SDS011;9573;50.948;11.600;2022-10-26T13:49:57;10.70;;;3.20;;
18881;SDS011;9573;50.948;11.600;2022-10-26T13:52:35;14.83;;;4.60;;
18881;SDS011;9573;50.948;11.600;2022-10-26T13:55:06;16.43;;;4.37;;
18881;SDS011;9573;50.948;11.600;2022-10-26T13:57:43;19.20;;;6.03;;
18881;SDS011;9573;50.948;11.600;2022-10-26T14:00:21;12.67;;;4.23;;
18881;SDS011;9573;50.948;11.600;2022-10-26T14:02:48;16.87;;;4.60;;
18881;SDS011;9573;50.948;11.600;2022-10-26T14:05:17;14.87;;;4.90;;
18881;SDS011;9573;50.948;11.600;2022-10-26T14:07:46;16.83;;;4.30;;
18881;SDS011;9573;50.948;11.600;2022-10-26T14:10:23;10.90;;;3.77;;
18881;SDS011;9573;50.948;11.600;2022-10-26T14:12:53;14.60;;;3.90;;
18881;SDS011;9573;50.948;11.600;2022-10-26T14:15:23;13.27;;;4.13;;
18881;SDS011;9573;50.948;11.600;2022-10-26T14:17:59;15.73;;;4.00;;
18881;SDS011;9573;50.948;11.600;2022-10-26T14:20:30;11.93;;;3.33;;
18881;SDS011;9573;50.948;11.600;2022-10-26T14:22:57;13.50;;;3.50;;
18881;SDS011;9573;50.948;11.600;2022-10-26T14:25:25;10.13;;;3.50;;
18881;SDS011;9573;50.948;11.600;2022-10-26T14:27:55;13.43;;;3.50;;
18881;SDS011;9573;50.948;11.600;2022-10-26T14:30:23;11.27;;;3.17;;
18881;SDS011;9573;50.948;11.600;2022-10-26T14:32:53;13.30;;;3.17;;
18881;SDS011;9573;50.948;11.600;2022-10-26T14:35:21;16.30;;;4.37;;
18881;SDS011;9573;50.948;11.600;2022-10-26T14:37:59;11.70;;;4.10;;
18881;SDS011;9573;50.948;11.600;2022-10-26T14:40:29;13.90;;;3.50;;
18881;SDS011;9573;50.948;11.600;2022-10-26T14:43:01;14.07;;;4.00;;
18881;SDS011;9573;50.948;11.600;2022-10-26T14:45:32;13.07;;;3.43;;
18881;SDS011;9573;50.948;11.600;2022-10-26T14:48:02;10.83;;;4.03;;
18881;SDS011;9573;50.948;11.600;2022-10-26T14:50:31;10.87;;;3.37;;
18881;SDS011;9573;50.948;11.600;2022-10-26T14:53:02;18.20;;;6.73;;
18881;SDS011;9573;50.948;11.600;2022-10-26T14:55:42;18.17;;;4.40;;
18881;SDS011;9573;50.948;11.600;2022-10-26T14:58:13;30.63;;;10.40;;
18881;SDS011;9573;50.948;11.600;2022-10-26T15:00:45;16.27;;;5.47;;
18881;SDS011;9573;50.948;11.600;2022-10-26T15:03:15;14.67;;;3.90;;
18881;SDS011;9573;50.948;11.600;2022-10-26T15:05:43;20.60;;;7.50;;
18881;SDS011;9573;50.948;11.600;2022-10-26T15:11:07;20.70;;;7.50;;
18881;SDS011;9573;50.948;11.600;2022-10-26T15:13:35;14.23;;;5.10;;
18881;SDS011;9573;50.948;11.600;2022-10-26T15:16:09;15.93;;;4.60;;
18881;SDS011;9573;50.948;11.600;2022-10-26T15:18:43;19.93;;;5.50;;
18881;SDS011;9573;50.948;11.600;2022-10-26T15:21:20;15.30;;;4.73;;
18881;SDS011;9573;50.948;11.600;2022-10-26T15:23:53;19.67;;;5.13;;
18881;SDS011;9573;50.948;11.600;2022-10-26T15:26:24;20.83;;;6.30;;
18881;SDS011;9573;50.948;11.600;2022-10-26T15:28:52;11.80;;;4.47;;
18881;SDS011;9573;50.948;11.600;2022-10-26T15:34:09;17.57;;;4.70;;
18881;SDS011;9573;50.948;11.600;2022-10-26T15:36:40;20.83;;;5.43;;
18881;SDS011;9573;50.948;11.600;2022-10-26T15:39:09;17.47;;;5.13;;
18881;SDS011;9573;50.948;11.600;2022-10-26T15:41:37;14.87;;;4.70;;
18881;SDS011;9573;50.948;11.600;2022-10-26T15:44:12;18.63;;;4.57;;
18881;SDS011;9573;50.948;11.600;2022-10-26T15:46:41;16.83;;;4.40;;
18881;SDS011;9573;50.948;11.600;2022-10-26T15:49:13;20.30;;;4.70;;
18881;SDS011;9573;50.948;11.600;2022-10-26T15:51:43;16.60;;;4.27;;
18881;SDS011;9573;50.948;11.600;2022-10-26T15:54:14;14.13;;;4.10;;
18881;SDS011;9573;50.948;11.600;2022-10-26T15:56:41;11.60;;;4.10;;
18881;SDS011;9573;50.948;11.600;2022-10-26T15:59:13;14.63;;;4.47;;
18881;SDS011;9573;50.948;11.600;2022-10-26T16:01:42;19.40;;;5.10;;
18881;SDS011;9573;50.948;11.600;2022-10-26T16:04:10;21.10;;;5.80;;
18881;SDS011;9573;50.948;11.600;2022-10-26T16:06:37;18.00;;;5.17;;
18881;SDS011;9573;50.948;11.600;2022-10-26T16:09:09;20.17;;;4.70;;
18881;SDS011;9573;50.948;11.600;2022-10-26T16:11:42;24.23;;;5.67;;
18881;SDS011;9573;50.948;11.600;2022-10-26T16:14:10;30.83;;;11.43;;
18881;SDS011;9573;50.948;11.600;2022-10-26T16:16:40;28.87;;;6.13;;
18881;SDS011;9573;50.948;11.600;2022-10-26T16:19:07;24.50;;;5.47;;
18881;SDS011;9573;50.948;11.600;2022-10-26T16:21:35;21.07;;;5.13;;
18881;SDS011;9573;50.948;11.600;2022-10-26T16:24:02;17.13;;;4.77;;
18881;SDS011;9573;50.948;11.600;2022-10-26T16:26:31;20.40;;;4.67;;
18881;SDS011;9573;50.948;11.600;2022-10-26T16:28:58;28.47;;;11.57;;
18881;SDS011;9573;50.948;11.600;2022-10-26T16:31:26;21.13;;;5.60;;
18881;SDS011;9573;50.948;11.600;2022-10-26T16:33:53;20.43;;;5.53;;
18881;SDS011;9573;50.948;11.600;2022-10-26T16:36:20;22.83;;;6.50;;
18881;SDS011;9573;50.948;11.600;2022-10-26T16:38:53;19.27;;;5.03;;
18881;SDS011;9573;50.948;11.600;2022-10-26T16:41:20;17.67;;;5.00;;
18881;SDS011;9573;50.948;11.600;2022-10-26T16:43:48;21.60;;;6.30;;
18881;SDS011;9573;50.948;11.600;2022-10-26T16:46:16;20.00;;;5.10;;
18881;SDS011;9573;50.948;11.600;2022-10-26T16:48:46;20.40;;;5.03;;
18881;SDS011;9573;50.948;11.600;2022-10-26T16:51:15;21.40;;;4.87;;
18881;SDS011;9573;50.948;11.600;2022-10-26T16:53:48;18.93;;;5.50;;
18881;SDS011;9573;50.948;11.600;2022-10-26T16:56:18;16.70;;;4.63;;
18881;SDS011;9573;50.948;11.600;2022-10-26T16:58:49;18.07;;;5.50;;
18881;SDS011;9573;50.948;11.600;2022-10-26T17:01:16;18.73;;;5.20;;
18881;SDS011;9573;50.948;11.600;2022-10-26T17:03:48;16.30;;;4.93;;
18881;SDS011;9573;50.948;11.600;2022-10-26T17:06:16;15.57;;;5.13;;
18881;SDS011;9573;50.948;11.600;2022-10-26T17:08:44;13.83;;;4.77;;
18881;SDS011;9573;50.948;11.600;2022-10-26T17:11:12;18.07;;;5.33;;
18881;SDS011;9573;50.948;11.600;2022-10-26T17:13:41;20.00;;;5.63;;
18881;SDS011;9573;50.948;11.600;2022-10-26T17:16:12;23.07;;;6.77;;
18881;SDS011;9573;50.948;11.600;2022-10-26T17:18:43;18.90;;;5.50;;
18881;SDS011;9573;50.948;11.600;2022-10-26T17:21:12;21.17;;;5.57;;
18881;SDS011;9573;50.948;11.600;2022-10-26T17:23:41;18.90;;;5.57;;
18881;SDS011;9573;50.948;11.600;2022-10-26T17:26:09;15.73;;;5.60;;
18881;SDS011;9573;50.948;11.600;2022-10-26T17:28:38;21.60;;;6.10;;
18881;SDS011;9573;50.948;11.600;2022-10-26T17:31:07;20.13;;;5.80;;
18881;SDS011;9573;50.948;11.600;2022-10-26T17:33:38;19.97;;;6.53;;
18881;SDS011;9573;50.948;11.600;2022-10-26T17:36:08;23.07;;;6.33;;
18881;SDS011;9573;50.948;11.600;2022-10-26T17:38:38;17.63;;;6.00;;
18881;SDS011;9573;50.948;11.600;2022-10-26T17:41:07;19.70;;;6.10;;
18881;SDS011;9573;50.948;11.600;2022-10-26T17:43:36;23.70;;;6.27;;
18881;SDS011;9573;50.948;11.600;2022-10-26T17:46:06;21.77;;;6.80;;
18881;SDS011;9573;50.948;11.600;2022-10-26T17:48:36;24.30;;;6.40;;
18881;SDS011;9573;50.948;11.600;2022-10-26T17:51:10;21.67;;;6.83;;
18881;SDS011;9573;50.948;11.600;2022-10-26T17:53:41;20.57;;;6.93;;
18881;SDS011;9573;50.948;11.600;2022-10-26T17:56:11;23.23;;;6.90;;
18881;SDS011;9573;50.948;11.600;2022-10-26T17:58:41;23.10;;;7.70;;
18881;SDS011;9573;50.948;11.600;2022-10-26T18:01:09;22.80;;;7.60;;
18881;SDS011;9573;50.948;11.600;2022-10-26T18:03:39;26.63;;;10.43;;
18881;SDS011;9573;50.948;11.600;2022-10-26T18:06:07;20.23;;;7.53;;
18881;SDS011;9573;50.948;11.600;2022-10-26T18:08:34;26.30;;;8.53;;
18881;SDS011;9573;50.948;11.600;2022-10-26T18:11:03;21.80;;;7.77;;
18881;SDS011;9573;50.948;11.600;2022-10-26T18:13:32;24.83;;;7.83;;
18881;SDS011;9573;50.948;11.600;2022-10-26T18:16:02;26.43;;;8.13;;
18881;SDS011;9573;50.948;11.600;2022-10-26T18:18:31;31.27;;;9.00;;
18881;SDS011;9573;50.948;11.600;2022-10-26T18:21:00;27.40;;;8.30;;
18881;SDS011;9573;50.948;11.600;2022-10-26T18:23:28;25.80;;;8.07;;
18881;SDS011;9573;50.948;11.600;2022-10-26T18:25:59;26.20;;;9.07;;
18881;SDS011;9573;50.948;11.600;2022-10-26T18:28:27;29.03;;;8.33;;
18881;SDS011;9573;50.948;11.600;2022-10-26T18:30:58;25.67;;;8.53;;
18881;SDS011;9573;50.948;11.600;2022-10-26T18:33:27;23.00;;;8.20;;
18881;SDS011;9573;50.948;11.600;2022-10-26T18:35:58;26.87;;;8.77;;
18881;SDS011;9573;50.948;11.600;2022-10-26T18:38:29;28.07;;;8.97;;
18881;SDS011;9573;50.948;11.600;2022-10-26T18:40:56;26.23;;;8.80;;
18881;SDS011;9573;50.948;11.600;2022-10-26T18:43:23;25.03;;;8.17;;
18881;SDS011;9573;50.948;11.600;2022-10-26T18:45:51;29.00;;;8.70;;
18881;SDS011;9573;50.948;11.600;2022-10-26T18:48:19;23.20;;;8.30;;
18881;SDS011;9573;50.948;11.600;2022-10-26T18:50:46;26.17;;;7.70;;
18881;SDS011;9573;50.948;11.600;2022-10-26T18:53:14;27.60;;;8.10;;
18881;SDS011;9573;50.948;11.600;2022-10-26T18:55:41;26.10;;;8.73;;
18881;SDS011;9573;50.948;11.600;2022-10-26T18:58:09;22.80;;;8.43;;
18881;SDS011;9573;50.948;11.600;2022-10-26T19:00:39;24.17;;;8.33;;
18881;SDS011;9573;50.948;11.600;2022-10-26T19:03:08;24.80;;;7.70;;
18881;SDS011;9573;50.948;11.600;2022-10-26T19:05:38;20.00;;;6.70;;
18881;SDS011;9573;50.948;11.600;2022-10-26T19:08:05;21.53;;;7.03;;
18881;SDS011;9573;50.948;11.600;2022-10-26T19:10:37;18.80;;;7.00;;
18881;SDS011;9573;50.948;11.600;2022-10-26T19:13:04;21.57;;;7.70;;
18881;SDS011;9573;50.948;11.600;2022-10-26T19:15:32;20.27;;;6.37;;
18881;SDS011;9573;50.948;11.600;2022-10-26T19:18:00;20.53;;;6.60;;
18881;SDS011;9573;50.948;11.600;2022-10-26T19:20:27;20.93;;;6.70;;
18881;SDS011;9573;50.948;11.600;2022-10-26T19:22:54;24.83;;;6.90;;
18881;SDS011;9573;50.948;11.600;2022-10-26T19:25:22;21.10;;;7.17;;
18881;SDS011;9573;50.948;11.600;2022-10-26T19:27:50;26.60;;;8.00;;
18881;SDS011;9573;50.948;11.600;2022-10-26T19:30:19;20.60;;;7.90;;
18881;SDS011;9573;50.948;11.600;2022-10-26T19:32:46;27.87;;;7.40;;
18881;SDS011;9573;50.948;11.600;2022-10-26T19:35:14;19.43;;;7.60;;
18881;SDS011;9573;50.948;11.600;2022-10-26T19:37:42;29.27;;;8.37;;
18881;SDS011;9573;50.948;11.600;2022-10-26T19:40:09;24.57;;;8.23;;
18881;SDS011;9573;50.948;11.600;2022-10-26T19:42:37;27.80;;;8.37;;
18881;SDS011;9573;50.948;11.600;2022-10-26T19:45:06;28.47;;;8.87;;
18881;SDS011;9573;50.948;11.600;2022-10-26T19:47:34;25.57;;;9.17;;
18881;SDS011;9573;50.948;11.600;2022-10-26T19:50:01;28.10;;;9.50;;
18881;SDS011;9573;50.948;11.600;2022-10-26T19:52:30;28.07;;;9.70;;
18881;SDS011;9573;50.948;11.600;2022-10-26T19:54:57;28.47;;;10.30;;
18881;SDS011;9573;50.948;11.600;2022-10-26T19:57:24;26.40;;;9.80;;
18881;SDS011;9573;50.948;11.600;2022-10-26T19:59:51;26.43;;;9.33;;
